Time;durP1;ratioP1;P1;durP2;ratioP2;P2;SDS_P1;SDS_P2;PMS_P1;PMS_P2;Temp;Humidity;BMP_temperature;BMP_pressure;BME280_temperature;BME280_humidity;BME280_pressure;Samples;Min_cycle;Max_cycle;Signal;HPM_P1;HPM_P2
2021/11/04 00:18:44;;;;;;;5.43;1.92;;;;;;;;;;4933297;27;20123;-63
2021/11/04 00:21:10;;;;;;;4.47;1.85;;;;;;;;;;4284242;33;20439;-62
2021/11/04 00:23:36;;;;;;;3.42;1.60;;;;;;;;;;4289479;33;20503;-63
2021/11/04 00:26:02;;;;;;;7.05;2.50;;;;;;;;;;4289292;33;20583;-63
2021/11/04 00:28:28;;;;;;;4.82;1.65;;;;;;;;;;4285021;33;20128;-69
2021/11/04 00:30:54;;;;;;;3.92;1.55;;;;;;;;;;4285524;33;20135;-63
2021/11/04 00:33:20;;;;;;;5.18;1.58;;;;;;;;;;4289287;33;20723;-64
2021/11/04 00:35:46;;;;;;;2.80;1.50;;;;;;;;;;4289190;33;20127;-63
2021/11/04 00:38:11;;;;;;;2.78;1.70;;;;;;;;;;4288430;33;20210;-63
2021/11/04 00:40:37;;;;;;;7.80;1.80;;;;;;;;;;4289211;33;20175;-64
2021/11/04 00:43:03;;;;;;;4.10;1.80;;;;;;;;;;4289102;33;20681;-63
2021/11/04 00:45:29;;;;;;;4.62;1.77;;;;;;;;;;4288982;33;20088;-63
2021/11/04 00:47:55;;;;;;;8.20;1.60;;;;;;;;;;4289418;33;20217;-63
2021/11/04 00:50:22;;;;;;;8.90;1.55;;;;;;;;;;4289043;33;20749;-64
2021/11/04 00:52:48;;;;;;;4.20;1.85;;;;;;;;;;4288387;33;20112;-64
2021/11/04 00:55:14;;;;;;;2.95;1.62;;;;;;;;;;4288712;33;20206;-64
2021/11/04 00:57:40;;;;;;;3.92;1.50;;;;;;;;;;4289213;33;20134;-64
2021/11/04 01:00:09;;;;;;;4.40;1.62;;;;;;;;;;4275707;33;20142;-64
2021/11/04 01:02:35;;;;;;;6.53;1.77;;;;;;;;;;4289567;33;20198;-64
2021/11/04 01:05:01;;;;;;;3.55;1.70;;;;;;;;;;4289067;33;20130;-64
2021/11/04 01:07:27;;;;;;;5.07;1.70;;;;;;;;;;4275621;33;20120;-64
2021/11/04 01:09:53;;;;;;;2.60;1.83;;;;;;;;;;4289159;33;20167;-64
2021/11/04 01:12:19;;;;;;;3.70;1.83;;;;;;;;;;4289200;33;20142;-64
2021/11/04 01:14:44;;;;;;;4.32;1.70;;;;;;;;;;4288725;33;20151;-64
2021/11/04 01:17:10;;;;;;;5.80;1.90;;;;;;;;;;4288952;33;20128;-64
2021/11/04 01:19:36;;;;;;;7.12;1.80;;;;;;;;;;4288463;33;20546;-64
2021/11/04 01:22:02;;;;;;;3.35;1.45;;;;;;;;;;4289089;33;20117;-64
2021/11/04 01:24:28;;;;;;;4.00;1.42;;;;;;;;;;4288845;33;20146;-64
2021/11/04 01:26:54;;;;;;;6.85;1.60;;;;;;;;;;4288927;33;20546;-64
2021/11/04 01:29:20;;;;;;;3.72;1.75;;;;;;;;;;4288535;33;20522;-64
2021/11/04 01:31:46;;;;;;;4.62;1.80;;;;;;;;;;4288694;33;20130;-64
2021/11/04 01:34:12;;;;;;;7.43;2.00;;;;;;;;;;4288649;33;20613;-64
2021/11/04 01:36:38;;;;;;;4.20;1.65;;;;;;;;;;4288994;33;20108;-64
2021/11/04 01:39:04;;;;;;;3.50;1.52;;;;;;;;;;4288825;33;20119;-65
2021/11/04 01:41:29;;;;;;;3.65;2.05;;;;;;;;;;4288860;33;20119;-64
2021/11/04 01:43:56;;;;;;;5.70;1.70;;;;;;;;;;4288804;33;20161;-64
2021/11/04 01:46:21;;;;;;;5.22;1.65;;;;;;;;;;4288312;33;20112;-64
2021/11/04 01:48:48;;;;;;;4.22;1.65;;;;;;;;;;4288692;33;20107;-64
2021/11/04 01:51:14;;;;;;;2.25;1.60;;;;;;;;;;4290571;33;20095;-64
2021/11/04 01:53:40;;;;;;;6.20;1.55;;;;;;;;;;4289824;33;20511;-64
2021/11/04 01:56:06;;;;;;;4.03;1.75;;;;;;;;;;4290107;33;20092;-64
2021/11/04 01:58:32;;;;;;;5.10;1.67;;;;;;;;;;4290838;33;20104;-64
2021/11/04 02:00:58;;;;;;;5.80;3.00;;;;;;;;;;4290653;33;20128;-64
2021/11/04 02:03:44;;;;;;;5.40;2.33;;;;;;;;;;4277364;33;20535;-64
2021/11/04 02:06:16;;;;;;;4.10;1.90;;;;;;;;;;4278024;33;20185;-64
2021/11/04 02:08:54;;;;;;;4.03;1.80;;;;;;;;;;4290760;33;20191;-64
2021/11/04 02:11:22;;;;;;;8.88;2.00;;;;;;;;;;4290459;33;20131;-65
2021/11/04 02:13:58;;;;;;;9.27;1.92;;;;;;;;;;4290709;33;20127;-66
2021/11/04 02:16:24;;;;;;;5.35;2.72;;;;;;;;;;4290247;33;20135;-67
2021/11/04 02:18:52;;;;;;;6.43;3.85;;;;;;;;;;4278270;33;20209;-64
2021/11/04 02:21:26;;;;;;;9.88;4.97;;;;;;;;;;4279083;33;20214;-64
2021/11/04 02:24:17;;;;;;;9.20;4.07;;;;;;;;;;4291651;33;20122;-65
2021/11/04 02:26:43;;;;;;;6.78;2.40;;;;;;;;;;4277900;33;20561;-64
2021/11/04 02:29:09;;;;;;;6.32;2.75;;;;;;;;;;4265735;33;20122;-64
2021/11/04 02:31:35;;;;;;;10.52;1.83;;;;;;;;;;4265580;33;20108;-65
2021/11/04 02:34:01;;;;;;;10.20;2.50;;;;;;;;;;4290921;33;20212;-63
2021/11/04 02:36:27;;;;;;;6.28;3.67;;;;;;;;;;4277064;33;20102;-64
2021/11/04 02:38:53;;;;;;;5.60;2.95;;;;;;;;;;4277942;33;20135;-64
2021/11/04 02:41:19;;;;;;;5.60;2.28;;;;;;;;;;4277286;33;20251;-63
2021/11/04 02:43:44;;;;;;;6.40;2.37;;;;;;;;;;4276917;33;20115;-62
2021/11/04 02:46:11;;;;;;;9.93;2.40;;;;;;;;;;4289527;33;20160;-69
2021/11/04 02:48:37;;;;;;;4.87;1.85;;;;;;;;;;4277138;33;20129;-69
2021/11/04 02:51:03;;;;;;;8.32;2.20;;;;;;;;;;4254361;33;20112;-69
2021/11/04 02:53:29;;;;;;;6.62;1.67;;;;;;;;;;4287528;33;20515;-69
2021/11/04 02:55:55;;;;;;;2.62;1.67;;;;;;;;;;4266660;33;20132;-69
2021/11/04 02:58:22;;;;;;;5.43;2.20;;;;;;;;;;4275513;33;20116;-69
2021/11/04 03:00:50;;;;;;;9.77;2.10;;;;;;;;;;4261969;33;20115;-69
2021/11/04 03:03:16;;;;;;;4.32;2.30;;;;;;;;;;4262742;33;20116;-67
2021/11/04 03:05:42;;;;;;;5.28;2.60;;;;;;;;;;4284502;33;20189;-68
2021/11/04 03:08:08;;;;;;;8.90;1.90;;;;;;;;;;4253004;33;20558;-69
2021/11/04 03:10:34;;;;;;;12.15;3.87;;;;;;;;;;4289768;33;20104;-69
2021/11/04 03:13:00;;;;;;;2.35;1.70;;;;;;;;;;4290318;33;20124;-69
2021/11/04 03:15:26;;;;;;;2.60;1.90;;;;;;;;;;4290058;33;20214;-69
2021/11/04 03:17:52;;;;;;;4.93;1.70;;;;;;;;;;4276878;33;20186;-69
2021/11/04 03:20:18;;;;;;;10.48;1.90;;;;;;;;;;4276683;33;20124;-69
2021/11/04 03:22:45;;;;;;;7.70;1.98;;;;;;;;;;4289784;33;20475;-70
2021/11/04 03:25:14;;;;;;;9.68;2.08;;;;;;;;;;4290052;33;20557;-69
2021/11/04 03:27:41;;;;;;;6.30;1.73;;;;;;;;;;4290151;33;20098;-69
2021/11/04 03:30:09;;;;;;;6.32;2.08;;;;;;;;;;4290083;33;20264;-69
2021/11/04 03:32:35;;;;;;;3.87;1.73;;;;;;;;;;4265238;33;20102;-69
2021/11/04 03:35:00;;;;;;;7.82;1.90;;;;;;;;;;4264341;33;20525;-69
2021/11/04 03:37:29;;;;;;;7.22;1.65;;;;;;;;;;4276417;33;20190;-69
2021/11/04 03:39:55;;;;;;;3.95;1.70;;;;;;;;;;4276961;33;20440;-70
2021/11/04 03:42:21;;;;;;;8.65;2.03;;;;;;;;;;4265404;33;20100;-68
2021/11/04 03:44:47;;;;;;;3.20;1.52;;;;;;;;;;4276264;33;20119;-69
2021/11/04 03:47:16;;;;;;;4.87;1.87;;;;;;;;;;4264222;33;20123;-69
2021/11/04 03:49:41;;;;;;;10.25;2.10;;;;;;;;;;4253321;33;20614;-69
2021/11/04 03:52:07;;;;;;;4.50;1.98;;;;;;;;;;4252217;33;20108;-68
2021/11/04 03:54:33;;;;;;;3.72;1.80;;;;;;;;;;4275652;33;20510;-69
2021/11/04 03:56:59;;;;;;;4.30;1.90;;;;;;;;;;4276276;33;20116;-70
2021/11/04 03:59:26;;;;;;;4.70;2.10;;;;;;;;;;4276189;33;20192;-69
2021/11/04 04:01:52;;;;;;;3.40;1.90;;;;;;;;;;4276672;33;20102;-70
2021/11/04 04:04:18;;;;;;;5.87;2.10;;;;;;;;;;4290028;33;20122;-69
2021/11/04 04:06:50;;;;;;;7.90;1.90;;;;;;;;;;4252506;33;20076;-70
2021/11/04 04:09:16;;;;;;;4.97;1.92;;;;;;;;;;4253287;33;20115;-69
2021/11/04 04:11:42;;;;;;;6.35;1.90;;;;;;;;;;4289429;33;20100;-69
2021/11/04 04:14:08;;;;;;;4.40;1.73;;;;;;;;;;4275359;33;20131;-69
2021/11/04 04:16:34;;;;;;;6.62;1.77;;;;;;;;;;4289153;33;20474;-69
2021/11/04 04:19:00;;;;;;;4.28;2.08;;;;;;;;;;4289431;33;20194;-69
2021/11/04 04:21:26;;;;;;;8.93;1.90;;;;;;;;;;4288980;33;20115;-70
2021/11/04 04:23:51;;;;;;;3.28;1.90;;;;;;;;;;4289380;33;20124;-68
2021/11/04 04:26:17;;;;;;;14.93;2.42;;;;;;;;;;4289191;33;20160;-69
2021/11/04 04:28:43;;;;;;;6.25;1.90;;;;;;;;;;4276157;33;20116;-69
2021/11/04 04:31:09;;;;;;;6.53;2.25;;;;;;;;;;4289382;33;20540;-70
2021/11/04 04:33:35;;;;;;;6.03;2.00;;;;;;;;;;4289445;33;20195;-70
2021/11/04 04:36:01;;;;;;;6.15;2.20;;;;;;;;;;4289566;33;20538;-70
2021/11/04 04:38:27;;;;;;;5.82;2.05;;;;;;;;;;4276186;33;20122;-72
2021/11/04 04:40:53;;;;;;;5.75;1.87;;;;;;;;;;4289485;33;20309;-72
2021/11/04 04:43:18;;;;;;;14.13;2.10;;;;;;;;;;4276042;33;20174;-72
2021/11/04 04:45:44;;;;;;;3.60;2.08;;;;;;;;;;4276398;33;20187;-71
2021/11/04 04:48:10;;;;;;;10.55;2.20;;;;;;;;;;4289353;33;20139;-72
2021/11/04 04:50:38;;;;;;;5.00;1.80;;;;;;;;;;4289463;33;20116;-71
2021/11/04 04:53:04;;;;;;;10.60;2.12;;;;;;;;;;4275840;33;20433;-71
2021/11/04 04:55:30;;;;;;;9.80;2.33;;;;;;;;;;4289382;33;20126;-69
2021/11/04 04:57:56;;;;;;;17.27;3.90;;;;;;;;;;4289587;33;20127;-71
2021/11/04 05:00:22;;;;;;;5.03;2.30;;;;;;;;;;4276173;33;20123;-70
2021/11/04 05:02:48;;;;;;;5.10;2.10;;;;;;;;;;4264083;33;20103;-70
2021/11/04 05:05:14;;;;;;;8.65;1.92;;;;;;;;;;4289307;33;20183;-63
2021/11/04 05:07:40;;;;;;;3.85;1.62;;;;;;;;;;4289519;33;20218;-63
2021/11/04 05:10:07;;;;;;;9.00;2.28;;;;;;;;;;4289103;33;20103;-64
2021/11/04 05:12:33;;;;;;;7.12;2.00;;;;;;;;;;4252471;33;20443;-65
2021/11/04 05:15:00;;;;;;;8.73;2.90;;;;;;;;;;4289326;33;20120;-67
2021/11/04 05:17:26;;;;;;;7.72;1.80;;;;;;;;;;4289400;33;20138;-63
2021/11/04 05:19:52;;;;;;;4.07;1.98;;;;;;;;;;4289118;33;20115;-63
2021/11/04 05:22:18;;;;;;;4.87;1.75;;;;;;;;;;4289205;33;20203;-64
2021/11/04 05:24:44;;;;;;;5.43;2.03;;;;;;;;;;4288860;33;20103;-66
2021/11/04 05:27:10;;;;;;;6.65;2.17;;;;;;;;;;4275771;33;20091;-70
2021/11/04 05:29:36;;;;;;;7.35;2.10;;;;;;;;;;4288845;33;20214;-69
2021/11/04 05:32:06;;;;;;;5.12;2.03;;;;;;;;;;4289270;33;20099;-70
2021/11/04 05:34:36;;;;;;;7.03;1.90;;;;;;;;;;4264495;33;20103;-70
2021/11/04 05:37:02;;;;;;;5.90;1.70;;;;;;;;;;4289012;33;20974;-69
2021/11/04 05:39:28;;;;;;;4.75;1.98;;;;;;;;;;4289065;33;20087;-69
2021/11/04 05:41:54;;;;;;;8.90;2.47;;;;;;;;;;4263755;33;20597;-71
2021/11/04 05:44:19;;;;;;;16.42;2.85;;;;;;;;;;4275483;33;20127;-70
2021/11/04 05:46:45;;;;;;;18.00;2.33;;;;;;;;;;4288850;33;20128;-72
2021/11/04 05:49:11;;;;;;;10.73;2.30;;;;;;;;;;4288792;33;20147;-72
2021/11/04 05:51:37;;;;;;;10.20;2.70;;;;;;;;;;4289004;33;20088;-72
2021/11/04 05:54:03;;;;;;;10.43;2.08;;;;;;;;;;4275257;33;20116;-72
2021/11/04 05:56:29;;;;;;;7.87;2.05;;;;;;;;;;4275379;33;20124;-72
2021/11/04 05:58:54;;;;;;;9.95;2.10;;;;;;;;;;4288658;33;20127;-72
2021/11/04 06:01:21;;;;;;;10.80;2.40;;;;;;;;;;4288660;33;20119;-72
2021/11/04 06:03:47;;;;;;;4.43;1.98;;;;;;;;;;4288664;33;20542;-70
2021/11/04 06:06:12;;;;;;;7.20;2.12;;;;;;;;;;4288607;33;20219;-71
2021/11/04 06:08:38;;;;;;;8.48;2.70;;;;;;;;;;4288610;33;20123;-72
2021/11/04 06:11:04;;;;;;;9.32;2.20;;;;;;;;;;4275361;33;20117;-72
2021/11/04 06:13:30;;;;;;;5.10;1.80;;;;;;;;;;4288490;33;20171;-72
2021/11/04 06:15:56;;;;;;;16.05;2.05;;;;;;;;;;4288749;33;20111;-70
2021/11/04 06:18:22;;;;;;;6.65;2.17;;;;;;;;;;4288385;33;20519;-71
2021/11/04 06:20:47;;;;;;;9.07;3.22;;;;;;;;;;4288401;33;20164;-71
2021/11/04 06:23:13;;;;;;;4.95;2.42;;;;;;;;;;4287027;33;20184;-72
2021/11/04 06:25:39;;;;;;;7.43;2.10;;;;;;;;;;4263122;33;20096;-70
2021/11/04 06:28:05;;;;;;;5.93;2.67;;;;;;;;;;4288287;33;20123;-72
2021/11/04 06:30:31;;;;;;;8.85;1.80;;;;;;;;;;4286874;33;20119;-72
2021/11/04 06:32:57;;;;;;;7.62;2.30;;;;;;;;;;4279920;33;20110;-71
2021/11/04 06:35:23;;;;;;;7.28;1.87;;;;;;;;;;4287846;33;20134;-72
2021/11/04 06:37:48;;;;;;;4.60;1.85;;;;;;;;;;4290289;33;20124;-70
2021/11/04 06:40:14;;;;;;;4.45;2.08;;;;;;;;;;4277372;33;20119;-71
2021/11/04 06:42:41;;;;;;;15.05;2.72;;;;;;;;;;4259702;33;20164;-70
2021/11/04 06:45:07;;;;;;;6.62;4.15;;;;;;;;;;4242045;33;20093;-72
2021/11/04 06:47:36;;;;;;;11.32;2.58;;;;;;;;;;4291148;33;20096;-73
2021/11/04 06:50:03;;;;;;;8.95;2.40;;;;;;;;;;4290679;33;20135;-71
2021/11/04 06:52:35;;;;;;;10.30;1.90;;;;;;;;;;4277439;33;20221;-73
2021/11/04 06:55:00;;;;;;;9.90;2.67;;;;;;;;;;4277658;33;20119;-73
2021/11/04 06:57:28;;;;;;;10.27;2.45;;;;;;;;;;4277277;33;20615;-71
2021/11/04 06:59:56;;;;;;;9.43;2.28;;;;;;;;;;4277243;33;20202;-71
2021/11/04 07:02:27;;;;;;;9.95;2.20;;;;;;;;;;4290975;33;20190;-72
2021/11/04 07:04:56;;;;;;;7.18;2.35;;;;;;;;;;4290806;33;20116;-72
2021/11/04 07:07:22;;;;;;;12.63;2.55;;;;;;;;;;4277561;33;20115;-73
2021/11/04 07:09:47;;;;;;;16.17;2.28;;;;;;;;;;4277309;33;20107;-72
2021/11/04 07:12:13;;;;;;;9.05;2.08;;;;;;;;;;4253724;33;20238;-72
2021/11/04 07:14:41;;;;;;;14.38;2.70;;;;;;;;;;4277126;33;20191;-73
2021/11/04 07:17:08;;;;;;;12.52;2.78;;;;;;;;;;4277030;33;20142;-72
2021/11/04 07:19:34;;;;;;;10.10;2.87;;;;;;;;;;4290241;33;20115;-71
2021/11/04 07:22:30;;;;;;;8.10;2.10;;;;;;;;;;4290277;33;20134;-71
2021/11/04 07:25:07;;;;;;;16.10;2.72;;;;;;;;;;4288594;33;20108;-69
2021/11/04 07:27:58;;;;;;;8.55;2.42;;;;;;;;;;4253154;33;20106;-70
2021/11/04 07:30:24;;;;;;;8.20;2.37;;;;;;;;;;4290014;33;20124;-71
2021/11/04 07:32:54;;;;;;;20.42;3.12;;;;;;;;;;4289926;33;20119;-70
2021/11/04 07:35:22;;;;;;;11.20;2.97;;;;;;;;;;4277041;33;20210;-70
2021/11/04 07:37:48;;;;;;;6.97;2.87;;;;;;;;;;4252862;33;20550;-69
2021/11/04 07:40:15;;;;;;;15.00;3.08;;;;;;;;;;4264704;33;20127;-70
2021/11/04 07:42:41;;;;;;;10.27;3.17;;;;;;;;;;4290376;33;20498;-70
2021/11/04 07:45:07;;;;;;;13.00;4.37;;;;;;;;;;4290062;33;20133;-64
2021/11/04 07:47:36;;;;;;;15.18;3.67;;;;;;;;;;4289957;33;20108;-64
2021/11/04 07:50:03;;;;;;;15.43;3.35;;;;;;;;;;4289928;33;20111;-63
2021/11/04 07:52:29;;;;;;;10.70;3.40;;;;;;;;;;4289973;33;20178;-64
2021/11/04 07:54:54;;;;;;;10.45;2.55;;;;;;;;;;4276644;33;20127;-64
2021/11/04 07:57:20;;;;;;;13.68;3.60;;;;;;;;;;4277205;33;20104;-64
2021/11/04 07:59:46;;;;;;;22.17;3.92;;;;;;;;;;4290162;33;20123;-63
2021/11/04 08:02:12;;;;;;;15.93;3.10;;;;;;;;;;4289875;33;20147;-64
2021/11/04 08:04:38;;;;;;;8.57;2.97;;;;;;;;;;4290443;33;20428;-66
2021/11/04 08:07:04;;;;;;;15.95;6.53;;;;;;;;;;4290598;33;20508;-65
2021/11/04 08:09:30;;;;;;;15.80;6.62;;;;;;;;;;4265102;33;20114;-64
2021/11/04 08:11:56;;;;;;;13.85;7.60;;;;;;;;;;4290114;33;20124;-64
2021/11/04 08:14:21;;;;;;;16.62;6.82;;;;;;;;;;4276540;33;20611;-63
2021/11/04 08:16:49;;;;;;;12.68;5.82;;;;;;;;;;4289748;33;20120;-65
2021/11/04 08:19:15;;;;;;;19.25;6.65;;;;;;;;;;4289551;33;20119;-65
2021/11/04 08:21:41;;;;;;;20.60;6.70;;;;;;;;;;4289630;33;20515;-64
2021/11/04 08:24:07;;;;;;;15.38;5.57;;;;;;;;;;4289757;33;20206;-64
2021/11/04 08:26:33;;;;;;;16.10;3.92;;;;;;;;;;4289571;33;20116;-66
2021/11/04 08:29:01;;;;;;;17.62;3.90;;;;;;;;;;4275701;33;20662;-66
2021/11/04 08:31:28;;;;;;;11.65;4.28;;;;;;;;;;4289182;33;20471;-67
2021/11/04 08:33:54;;;;;;;15.40;2.55;;;;;;;;;;4289010;33;20130;-65
2021/11/04 08:36:20;;;;;;;5.78;2.60;;;;;;;;;;4275992;33;20416;-67
2021/11/04 08:38:46;;;;;;;4.43;2.30;;;;;;;;;;4289597;33;20115;-66
2021/11/04 08:41:12;;;;;;;9.05;3.65;;;;;;;;;;4289575;33;20117;-66
2021/11/04 08:43:38;;;;;;;19.73;5.30;;;;;;;;;;4275965;33;20092;-66
2021/11/04 08:46:04;;;;;;;15.23;5.55;;;;;;;;;;4275744;33;20274;-65
2021/11/04 08:48:30;;;;;;;16.87;4.32;;;;;;;;;;4289187;33;20120;-64
2021/11/04 08:50:56;;;;;;;14.05;4.45;;;;;;;;;;4287457;33;20117;-65
2021/11/04 08:53:22;;;;;;;8.73;2.47;;;;;;;;;;4274156;33;20215;-65
2021/11/04 08:55:48;;;;;;;8.57;2.05;;;;;;;;;;4288354;33;20136;-64
2021/11/04 08:58:14;;;;;;;7.78;2.30;;;;;;;;;;4274891;33;20108;-65
2021/11/04 09:00:40;;;;;;;12.95;3.60;;;;;;;;;;4287846;33;20130;-64
2021/11/04 09:03:06;;;;;;;11.15;2.33;;;;;;;;;;4288997;33;20122;-64
2021/11/04 09:05:32;;;;;;;10.05;2.55;;;;;;;;;;4274118;33;20578;-64
2021/11/04 09:07:58;;;;;;;7.97;2.53;;;;;;;;;;4273709;33;20111;-63
2021/11/04 09:10:26;;;;;;;8.02;3.53;;;;;;;;;;4275779;33;20107;-64
2021/11/04 09:12:52;;;;;;;13.80;4.70;;;;;;;;;;4276039;33;20427;-64
2021/11/04 09:15:18;;;;;;;10.73;4.30;;;;;;;;;;4289070;33;20124;-64
2021/11/04 09:17:44;;;;;;;19.12;4.82;;;;;;;;;;4289449;33;20122;-64
2021/11/04 09:20:11;;;;;;;21.00;6.07;;;;;;;;;;4289063;33;20134;-64
2021/11/04 09:22:40;;;;;;;8.18;4.60;;;;;;;;;;4264662;33;20117;-65
2021/11/04 09:25:07;;;;;;;6.80;3.35;;;;;;;;;;4288894;33;20138;-65
2021/11/04 09:27:33;;;;;;;18.10;4.30;;;;;;;;;;4289152;33;20535;-65
2021/11/04 09:30:00;;;;;;;12.60;4.65;;;;;;;;;;4275615;33;20091;-65
2021/11/04 09:32:26;;;;;;;14.40;2.87;;;;;;;;;;4275634;33;20471;-65
2021/11/04 09:34:52;;;;;;;13.27;3.28;;;;;;;;;;4288777;33;20096;-65
2021/11/04 09:37:18;;;;;;;14.15;3.33;;;;;;;;;;4275460;33;20095;-64
2021/11/04 09:39:47;;;;;;;11.45;3.33;;;;;;;;;;4288718;33;20103;-64
2021/11/04 09:42:15;;;;;;;8.18;2.60;;;;;;;;;;4288942;33;20608;-64
2021/11/04 09:44:44;;;;;;;15.80;3.33;;;;;;;;;;4288968;33;20116;-65
2021/11/04 09:47:10;;;;;;;12.88;3.28;;;;;;;;;;4252352;33;20108;-65
2021/11/04 09:49:37;;;;;;;18.35;4.10;;;;;;;;;;4275458;33;20092;-63
2021/11/04 09:52:03;;;;;;;9.13;3.58;;;;;;;;;;4288507;33;20127;-63
2021/11/04 09:54:29;;;;;;;8.48;1.83;;;;;;;;;;4288360;33;20115;-65
2021/11/04 09:56:54;;;;;;;4.90;2.20;;;;;;;;;;4288405;33;20593;-67
2021/11/04 09:59:20;;;;;;;7.85;3.53;;;;;;;;;;4288406;33;20142;-64
2021/11/04 10:01:47;;;;;;;14.70;4.90;;;;;;;;;;4288555;33;20115;-65
2021/11/04 10:04:14;;;;;;;18.00;5.57;;;;;;;;;;4288405;33;20111;-65
2021/11/04 10:06:40;;;;;;;19.87;4.32;;;;;;;;;;4263584;33;20103;-65
2021/11/04 10:09:10;;;;;;;6.75;2.83;;;;;;;;;;4275086;33;20511;-66
2021/11/04 10:11:40;;;;;;;9.40;3.08;;;;;;;;;;4289956;33;20099;-68
2021/11/04 10:14:10;;;;;;;8.45;2.58;;;;;;;;;;4276773;33;20099;-66
2021/11/04 10:16:36;;;;;;;10.52;2.60;;;;;;;;;;4277345;33;20119;-67
2021/11/04 10:19:04;;;;;;;12.70;3.20;;;;;;;;;;4290681;33;20115;-66
2021/11/04 10:21:30;;;;;;;6.30;2.40;;;;;;;;;;4290502;33;20201;-68
2021/11/04 10:23:56;;;;;;;4.75;2.15;;;;;;;;;;4290634;33;20124;-67
2021/11/04 10:26:24;;;;;;;12.50;2.55;;;;;;;;;;4277020;33;20715;-68
2021/11/04 10:28:56;;;;;;;7.85;2.17;;;;;;;;;;4290562;33;20111;-67
2021/11/04 10:31:22;;;;;;;9.80;2.78;;;;;;;;;;4290427;33;20310;-68
2021/11/04 10:33:49;;;;;;;6.12;2.47;;;;;;;;;;4276928;33;20255;-66
2021/11/04 10:36:23;;;;;;;6.20;2.35;;;;;;;;;;4277166;33;20597;-68
2021/11/04 10:38:52;;;;;;;1.80;1.30;;;;;;;;;;4277600;33;20111;-67
2021/11/04 10:41:28;;;;;;;8.32;2.50;;;;;;;;;;4290624;33;20107;-67
2021/11/04 10:44:20;;;;;;;13.48;2.35;;;;;;;;;;4265591;33;20487;-68
2021/11/04 10:46:53;;;;;;;5.32;1.73;;;;;;;;;;4290433;33;20118;-67
2021/11/04 10:49:22;;;;;;;4.22;1.70;;;;;;;;;;4290511;33;20753;-67
2021/11/04 10:52:16;;;;;;;6.45;2.97;;;;;;;;;;4290375;33;20192;-67
2021/11/04 10:54:49;;;;;;;1.55;1.42;;;;;;;;;;4288599;33;20480;-66
2021/11/04 10:57:38;;;;;;;15.15;2.87;;;;;;;;;;4290180;33;20519;-67
2021/11/04 11:00:21;;;;;;;3.25;2.12;;;;;;;;;;4277071;33;20107;-74
2021/11/04 11:03:11;;;;;;;15.50;3.75;;;;;;;;;;4265181;33;20134;-74
2021/11/04 11:05:39;;;;;;;2.75;1.98;;;;;;;;;;4265149;33;20094;-70
2021/11/04 11:08:06;;;;;;;4.20;2.00;;;;;;;;;;4290374;33;20119;-70
2021/11/04 11:10:32;;;;;;;9.75;2.78;;;;;;;;;;4276786;33;20103;-72
2021/11/04 11:12:58;;;;;;;9.52;4.57;;;;;;;;;;4290929;33;20142;-70
2021/11/04 11:15:24;;;;;;;13.32;3.80;;;;;;;;;;4291023;33;20100;-71
2021/11/04 11:17:50;;;;;;;11.45;3.42;;;;;;;;;;4277013;33;20099;-74
2021/11/04 11:20:16;;;;;;;13.70;4.32;;;;;;;;;;4289987;33;20470;-73
2021/11/04 11:22:43;;;;;;;15.40;4.45;;;;;;;;;;4252877;33;20119;-72
2021/11/04 11:25:09;;;;;;;7.87;3.60;;;;;;;;;;4290220;33;20190;-71
2021/11/04 11:27:35;;;;;;;12.95;3.55;;;;;;;;;;4290094;33;20084;-71
2021/11/04 11:30:01;;;;;;;9.32;3.12;;;;;;;;;;4276673;33;20127;-71
2021/11/04 11:32:29;;;;;;;11.63;2.80;;;;;;;;;;4264931;33;20523;-71
2021/11/04 11:35:20;;;;;;;11.43;3.05;;;;;;;;;;4290027;33;20503;-69
2021/11/04 11:37:55;;;;;;;8.02;3.65;;;;;;;;;;4290164;33;20104;-72
2021/11/04 11:40:22;;;;;;;6.80;2.92;;;;;;;;;;4290165;33;20122;-70
2021/11/04 11:43:09;;;;;;;10.23;3.20;;;;;;;;;;4290074;33;20087;-72
2021/11/04 11:45:37;;;;;;;13.75;4.50;;;;;;;;;;4276848;33;20536;-72
2021/11/04 11:48:23;;;;;;;12.68;5.53;;;;;;;;;;4290124;33;20126;-70
2021/11/04 11:50:50;;;;;;;10.93;6.20;;;;;;;;;;4276906;33;20100;-73
2021/11/04 11:53:34;;;;;;;14.20;5.12;;;;;;;;;;4276270;33;20475;-71
2021/11/04 11:56:01;;;;;;;13.55;3.53;;;;;;;;;;4276485;33;20210;-73
2021/11/04 11:58:33;;;;;;;10.90;4.60;;;;;;;;;;4289845;33;20131;-72
2021/11/04 12:00:59;;;;;;;12.68;3.15;;;;;;;;;;4289898;33;20103;-72
2021/11/04 12:03:31;;;;;;;11.12;3.40;;;;;;;;;;4290035;33;20103;-74
2021/11/04 12:06:00;;;;;;;10.77;3.50;;;;;;;;;;4289910;33;20263;-74
2021/11/04 12:08:26;;;;;;;14.25;4.57;;;;;;;;;;4276460;33;20198;-68
2021/11/04 12:10:52;;;;;;;8.52;3.45;;;;;;;;;;4290262;33;20294;-74
2021/11/04 12:13:53;;;;;;;13.30;4.22;;;;;;;;;;4290457;33;20520;-73
2021/11/04 12:16:22;;;;;;;8.82;4.18;;;;;;;;;;4233001;33;20120;-74
2021/11/04 12:18:59;;;;;;;11.70;3.53;;;;;;;;;;4256252;33;20112;-71
2021/11/04 12:21:27;;;;;;;7.93;3.40;;;;;;;;;;4289491;33;20128;-70
2021/11/04 12:23:54;;;;;;;5.82;3.05;;;;;;;;;;4276228;33;20108;-73
2021/11/04 12:26:33;;;;;;;7.32;3.42;;;;;;;;;;4276254;33;20096;-73
2021/11/04 12:28:59;;;;;;;9.27;3.33;;;;;;;;;;4264479;33;20135;-70
2021/11/04 12:31:26;;;;;;;10.32;3.05;;;;;;;;;;4276040;33;20115;-69
2021/11/04 12:33:52;;;;;;;16.10;3.45;;;;;;;;;;4287980;33;20211;-69
2021/11/04 12:36:29;;;;;;;7.93;3.30;;;;;;;;;;4275763;33;20111;-70
2021/11/04 12:38:55;;;;;;;9.23;3.08;;;;;;;;;;4288134;33;20138;-72
2021/11/04 12:41:21;;;;;;;8.13;3.42;;;;;;;;;;4264229;33;20528;-73
2021/11/04 12:43:48;;;;;;;7.22;3.25;;;;;;;;;;4289449;33;20222;-72
2021/11/04 12:46:19;;;;;;;10.13;3.35;;;;;;;;;;4276152;33;20101;-71
2021/11/04 12:49:00;;;;;;;12.55;5.70;;;;;;;;;;4289602;33;20127;-73
2021/11/04 12:51:27;;;;;;;12.90;4.15;;;;;;;;;;4276113;33;20895;-74
2021/11/04 12:53:59;;;;;;;11.27;5.18;;;;;;;;;;4264271;33;20574;-74
2021/11/04 12:56:48;;;;;;;11.75;4.85;;;;;;;;;;4276857;33;20113;-74
2021/11/04 12:59:34;;;;;;;10.32;3.80;;;;;;;;;;4289193;33;20139;-72
2021/11/04 13:02:11;;;;;;;8.75;4.57;;;;;;;;;;4289895;33;20511;-73
2021/11/04 13:04:42;;;;;;;10.23;6.07;;;;;;;;;;4275888;33;20143;-72
2021/11/04 13:07:10;;;;;;;12.48;6.35;;;;;;;;;;4288937;33;20539;-73
2021/11/04 13:09:49;;;;;;;13.45;5.60;;;;;;;;;;4288890;33;20107;-72
2021/11/04 13:12:16;;;;;;;6.93;3.60;;;;;;;;;;4289168;33;20114;-72
2021/11/04 13:14:56;;;;;;;6.60;3.50;;;;;;;;;;4289062;33;20096;-72
2021/11/04 13:17:28;;;;;;;8.43;3.90;;;;;;;;;;4289369;33;20100;-72
2021/11/04 13:20:08;;;;;;;11.27;3.95;;;;;;;;;;4289005;33;20497;-72
2021/11/04 13:22:40;;;;;;;12.05;4.87;;;;;;;;;;4252298;33;20179;-73
2021/11/04 13:25:09;;;;;;;15.23;5.37;;;;;;;;;;4263836;33;20186;-74
2021/11/04 13:27:35;;;;;;;9.68;4.03;;;;;;;;;;4275843;33;20127;-73
2021/11/04 13:30:00;;;;;;;10.45;3.70;;;;;;;;;;4276067;33;20290;-73
2021/11/04 13:32:30;;;;;;;8.60;3.20;;;;;;;;;;4276554;33;20120;-72
2021/11/04 13:34:58;;;;;;;10.52;3.30;;;;;;;;;;4276656;33;20186;-72
2021/11/04 13:37:27;;;;;;;8.73;3.00;;;;;;;;;;4275986;33;20108;-73
2021/11/04 13:39:55;;;;;;;5.70;2.40;;;;;;;;;;4265021;33;20538;-73
2021/11/04 13:42:33;;;;;;;8.75;2.65;;;;;;;;;;4289248;33;20221;-73
2021/11/04 13:45:19;;;;;;;9.70;3.60;;;;;;;;;;4290932;33;20108;-72
2021/11/04 13:47:45;;;;;;;12.82;5.03;;;;;;;;;;4286386;33;20539;-72
2021/11/04 13:50:14;;;;;;;6.72;3.75;;;;;;;;;;4291651;33;20118;-72
2021/11/04 13:52:40;;;;;;;5.47;3.12;;;;;;;;;;4288964;33;20460;-71
2021/11/04 13:55:07;;;;;;;8.77;3.20;;;;;;;;;;4275730;33;20131;-72
2021/11/04 13:57:49;;;;;;;6.40;3.35;;;;;;;;;;4288862;33;20193;-71
2021/11/04 14:00:26;;;;;;;6.22;2.97;;;;;;;;;;4288993;33;20103;-71
2021/11/04 14:03:01;;;;;;;9.35;3.20;;;;;;;;;;4275538;33;20109;-70
2021/11/04 14:05:53;;;;;;;7.80;3.55;;;;;;;;;;4289187;33;20088;-72
2021/11/04 14:08:47;;;;;;;13.50;3.80;;;;;;;;;;4288620;33;20527;-73
2021/11/04 14:11:26;;;;;;;8.15;3.83;;;;;;;;;;4288972;33;20134;-73
2021/11/04 14:13:53;;;;;;;7.05;3.25;;;;;;;;;;4288683;33;20523;-71
2021/11/04 14:16:40;;;;;;;7.28;3.62;;;;;;;;;;4288798;33;20111;-70
2021/11/04 14:19:08;;;;;;;10.05;2.97;;;;;;;;;;4275328;33;20088;-71
2021/11/04 14:21:35;;;;;;;6.18;3.15;;;;;;;;;;4288340;33;20131;-70
2021/11/04 14:24:03;;;;;;;7.18;5.37;;;;;;;;;;4275084;33;20103;-71
2021/11/04 14:26:34;;;;;;;12.70;7.25;;;;;;;;;;4288515;33;20115;-67
2021/11/04 14:29:04;;;;;;;8.95;5.43;;;;;;;;;;4275591;33;20119;-62
2021/11/04 14:31:30;;;;;;;8.60;4.78;;;;;;;;;;4274984;33;20120;-61
2021/11/04 14:33:56;;;;;;;16.52;4.35;;;;;;;;;;4250975;33;20123;-63
2021/11/04 14:36:23;;;;;;;9.02;3.58;;;;;;;;;;4288276;33;20724;-63
2021/11/04 14:38:49;;;;;;;10.15;3.60;;;;;;;;;;4263200;33;20131;-63
2021/11/04 14:41:15;;;;;;;6.20;3.28;;;;;;;;;;4288121;33;20523;-64
2021/11/04 14:43:41;;;;;;;5.78;3.37;;;;;;;;;;4288194;33;20202;-64
2021/11/04 14:46:07;;;;;;;6.15;3.50;;;;;;;;;;4288301;33;20167;-63
2021/11/04 14:48:33;;;;;;;8.40;4.15;;;;;;;;;;4287976;33;20241;-65
2021/11/04 14:50:59;;;;;;;7.78;4.35;;;;;;;;;;4288421;33;20543;-63
2021/11/04 14:53:26;;;;;;;6.50;3.33;;;;;;;;;;4274620;33;20131;-64
2021/11/04 14:55:52;;;;;;;12.93;3.55;;;;;;;;;;4288054;33;20103;-64
2021/11/04 14:58:17;;;;;;;6.57;3.85;;;;;;;;;;4289539;33;20119;-63
2021/11/04 15:00:43;;;;;;;10.70;5.55;;;;;;;;;;4277172;33;20096;-64
2021/11/04 15:03:09;;;;;;;12.75;6.30;;;;;;;;;;4265078;33;20512;-63